Time;durP1;ratioP1;P1;durP2;ratioP2;P2;SDS_P1;SDS_P2;PMS_P1;PMS_P2;Temp;Humidity;BMP_temperature;BMP_pressure;BME280_temperature;BME280_humidity;BME280_pressure;Samples;Min_cycle;Max_cycle;Signal;HPM_P1;HPM_P2
2023/03/23 00:00:09;;;;;;;8.50;5.03;;;;;;;;;;5073828;28;20215;-57
2023/03/23 00:02:37;;;;;;;9.53;5.23;;;;;;;;;;5073715;28;20654;-56
2023/03/23 00:05:04;;;;;;;8.70;5.30;;;;;;;;;;5073398;28;20702;-57
2023/03/23 00:07:30;;;;;;;6.13;5.40;;;;;;;;;;5073158;28;20334;-57
2023/03/23 00:09:56;;;;;;;7.93;5.73;;;;;;;;;;5073638;28;20188;-57
2023/03/23 00:12:33;;;;;;;8.60;5.30;;;;;;;;;;5073629;28;20196;-57
2023/03/23 00:15:00;;;;;;;7.90;5.80;;;;;;;;;;5073627;28;20282;-57
2023/03/23 00:17:26;;;;;;;7.47;5.50;;;;;;;;;;5073482;28;20217;-57
2023/03/23 00:19:52;;;;;;;9.27;6.00;;;;;;;;;;5073054;28;20291;-57
2023/03/23 00:22:20;;;;;;;5.93;5.33;;;;;;;;;;5073314;28;20677;-57
2023/03/23 00:24:46;;;;;;;6.00;5.40;;;;;;;;;;5073223;28;20701;-57
2023/03/23 00:27:14;;;;;;;9.90;6.30;;;;;;;;;;5073075;28;20254;-58
2023/03/23 00:29:41;;;;;;;8.10;5.43;;;;;;;;;;5073350;28;20203;-57
2023/03/23 00:32:12;;;;;;;9.17;6.07;;;;;;;;;;5072858;28;20725;-57
2023/03/23 00:34:40;;;;;;;7.57;5.50;;;;;;;;;;5073229;28;20202;-57
2023/03/23 00:37:07;;;;;;;9.43;5.80;;;;;;;;;;5073002;28;20206;-57
2023/03/23 00:39:33;;;;;;;7.57;6.47;;;;;;;;;;5072827;28;20673;-57
2023/03/23 00:42:02;;;;;;;7.13;6.20;;;;;;;;;;5072775;28;20219;-57
2023/03/23 00:44:28;;;;;;;6.90;6.20;;;;;;;;;;5072684;28;20282;-56
2023/03/23 00:46:56;;;;;;;7.37;6.27;;;;;;;;;;5072787;28;20219;-57
2023/03/23 00:49:25;;;;;;;10.13;6.80;;;;;;;;;;5072657;28;20210;-56
2023/03/23 00:51:52;;;;;;;11.30;6.57;;;;;;;;;;5072808;28;20184;-56
2023/03/23 00:54:18;;;;;;;8.07;5.93;;;;;;;;;;5072797;28;20199;-56
2023/03/23 00:56:44;;;;;;;6.83;6.00;;;;;;;;;;5072280;28;20290;-57
2023/03/23 00:59:10;;;;;;;8.70;6.07;;;;;;;;;;5072615;28;20322;-57
2023/03/23 01:01:36;;;;;;;7.07;5.80;;;;;;;;;;5072629;28;20196;-56
2023/03/23 01:04:04;;;;;;;8.00;5.53;;;;;;;;;;5070298;28;20326;-57
2023/03/23 01:06:31;;;;;;;6.57;5.87;;;;;;;;;;5070831;28;20318;-58
2023/03/23 01:08:57;;;;;;;9.90;6.27;;;;;;;;;;5072359;28;20619;-59
2023/03/23 01:11:24;;;;;;;6.87;6.27;;;;;;;;;;5072671;28;20613;-58
2023/03/23 01:13:50;;;;;;;7.43;6.03;;;;;;;;;;5072433;28;20199;-59
2023/03/23 01:16:16;;;;;;;7.40;5.97;;;;;;;;;;5072373;28;20289;-59
2023/03/23 01:18:42;;;;;;;8.80;6.40;;;;;;;;;;5072313;28;20231;-58
2023/03/23 01:21:10;;;;;;;9.53;6.53;;;;;;;;;;5072360;28;20203;-59
2023/03/23 01:23:37;;;;;;;7.73;6.07;;;;;;;;;;5072106;28;20219;-59
2023/03/23 01:26:04;;;;;;;8.67;6.47;;;;;;;;;;5072189;28;20249;-59
2023/03/23 01:28:30;;;;;;;8.23;6.73;;;;;;;;;;5072147;28;20453;-60
2023/03/23 01:30:59;;;;;;;10.93;6.53;;;;;;;;;;5072143;28;20561;-59
2023/03/23 01:33:25;;;;;;;9.43;6.93;;;;;;;;;;5072264;28;20222;-59
2023/03/23 01:35:51;;;;;;;9.97;7.00;;;;;;;;;;5072018;28;20196;-60
2023/03/23 01:38:19;;;;;;;9.10;6.33;;;;;;;;;;5072063;28;20672;-60
2023/03/23 01:40:45;;;;;;;8.37;7.03;;;;;;;;;;5071906;28;20217;-59
2023/03/23 01:43:13;;;;;;;7.33;6.63;;;;;;;;;;5072063;28;20698;-59
2023/03/23 01:45:40;;;;;;;9.00;6.80;;;;;;;;;;5072106;28;20215;-59
2023/03/23 01:48:10;;;;;;;9.67;6.67;;;;;;;;;;5071728;28;20593;-59
2023/03/23 01:50:38;;;;;;;8.20;6.00;;;;;;;;;;5071759;28;20200;-60
2023/03/23 01:53:08;;;;;;;8.27;6.60;;;;;;;;;;5071490;28;20207;-60
2023/03/23 01:55:36;;;;;;;9.87;6.47;;;;;;;;;;5071901;28;20258;-60
2023/03/23 01:58:03;;;;;;;9.80;7.20;;;;;;;;;;5071572;28;20273;-60
2023/03/23 02:00:30;;;;;;;8.80;6.67;;;;;;;;;;5071742;28;20245;-60
2023/03/23 02:02:56;;;;;;;10.53;6.27;;;;;;;;;;5071216;28;20196;-60
2023/03/23 02:05:25;;;;;;;7.03;6.33;;;;;;;;;;5070988;28;20593;-60
2023/03/23 02:07:51;;;;;;;7.87;6.37;;;;;;;;;;5070884;28;20535;-60
2023/03/23 02:10:18;;;;;;;7.40;6.40;;;;;;;;;;5071016;28;20199;-60
2023/03/23 02:12:45;;;;;;;7.50;6.63;;;;;;;;;;5070958;28;20212;-60
2023/03/23 02:15:11;;;;;;;8.13;6.57;;;;;;;;;;5071016;28;20208;-60
2023/03/23 02:17:42;;;;;;;9.90;7.50;;;;;;;;;;5071620;28;20202;-60
2023/03/23 02:20:17;;;;;;;7.67;6.83;;;;;;;;;;5071661;28;20223;-60
2023/03/23 02:22:49;;;;;;;6.90;6.20;;;;;;;;;;5071625;28;20286;-59
2023/03/23 02:25:27;;;;;;;7.47;6.77;;;;;;;;;;5071753;28;20290;-60
2023/03/23 02:28:11;;;;;;;8.27;6.47;;;;;;;;;;5071511;28;20262;-58
2023/03/23 02:30:49;;;;;;;6.70;5.90;;;;;;;;;;5071322;28;20203;-59
2023/03/23 02:33:36;;;;;;;9.23;6.93;;;;;;;;;;5071407;28;20748;-58
2023/03/23 02:36:04;;;;;;;9.83;6.47;;;;;;;;;;5071467;28;20242;-59
2023/03/23 02:38:32;;;;;;;9.07;6.20;;;;;;;;;;5071420;28;20286;-60
2023/03/23 02:41:00;;;;;;;6.33;5.67;;;;;;;;;;5071248;28;20245;-60
2023/03/23 02:43:29;;;;;;;8.87;6.13;;;;;;;;;;5071383;28;20223;-59
2023/03/23 02:45:57;;;;;;;6.00;5.40;;;;;;;;;;5071318;28;20200;-59
2023/03/23 02:48:24;;;;;;;6.40;5.50;;;;;;;;;;5071418;28;20227;-59
2023/03/23 02:50:53;;;;;;;8.30;5.50;;;;;;;;;;5071243;28;20199;-59
2023/03/23 02:53:21;;;;;;;6.60;5.47;;;;;;;;;;5071285;28;20247;-59
2023/03/23 02:55:48;;;;;;;6.47;5.30;;;;;;;;;;5069910;28;20219;-59
2023/03/23 02:58:15;;;;;;;5.90;4.90;;;;;;;;;;5071089;28;20195;-59
2023/03/23 03:00:41;;;;;;;7.13;5.37;;;;;;;;;;5071307;28;20207;-59
2023/03/23 03:03:11;;;;;;;4.97;4.57;;;;;;;;;;5071383;28;20203;-58
2023/03/23 03:05:39;;;;;;;7.13;5.10;;;;;;;;;;5075068;28;20565;-59
2023/03/23 03:08:17;;;;;;;7.23;4.30;;;;;;;;;;5074763;28;20227;-59
2023/03/23 03:10:47;;;;;;;7.73;4.97;;;;;;;;;;5074862;28;20324;-59
2023/03/23 03:13:19;;;;;;;5.60;4.80;;;;;;;;;;5074688;28;20207;-60
2023/03/23 03:15:49;;;;;;;5.97;4.93;;;;;;;;;;5074776;28;20199;-60
2023/03/23 03:18:19;;;;;;;6.60;4.63;;;;;;;;;;5074664;28;20191;-60
2023/03/23 03:20:47;;;;;;;6.27;5.33;;;;;;;;;;5074598;28;20195;-60
2023/03/23 03:23:15;;;;;;;6.53;4.60;;;;;;;;;;5074787;28;20195;-60
2023/03/23 03:25:47;;;;;;;6.27;4.80;;;;;;;;;;5074552;28;20231;-59
2023/03/23 03:28:13;;;;;;;5.13;4.40;;;;;;;;;;5074432;28;20304;-60
2023/03/23 03:30:43;;;;;;;6.30;4.43;;;;;;;;;;5074609;28;20241;-60
2023/03/23 03:33:11;;;;;;;6.13;4.20;;;;;;;;;;5074446;28;20666;-60
2023/03/23 03:35:38;;;;;;;5.77;4.20;;;;;;;;;;5074533;28;20200;-60
2023/03/23 03:38:08;;;;;;;5.17;4.30;;;;;;;;;;5074301;28;20638;-61
2023/03/23 03:40:35;;;;;;;6.20;4.40;;;;;;;;;;5074313;28;20191;-60
2023/03/23 03:43:02;;;;;;;4.77;4.00;;;;;;;;;;5074031;28;20223;-61
2023/03/23 03:45:28;;;;;;;7.47;4.13;;;;;;;;;;5074203;28;20208;-61
2023/03/23 03:47:54;;;;;;;3.90;3.50;;;;;;;;;;5074126;28;20227;-59
2023/03/23 03:50:20;;;;;;;4.47;3.60;;;;;;;;;;5074194;28;20199;-60
2023/03/23 03:52:46;;;;;;;7.03;3.90;;;;;;;;;;5074036;28;20245;-60
2023/03/23 03:55:12;;;;;;;5.93;3.67;;;;;;;;;;5073961;28;20199;-60
2023/03/23 03:57:41;;;;;;;7.17;4.03;;;;;;;;;;5074005;28;20562;-60
2023/03/23 04:00:14;;;;;;;5.80;3.87;;;;;;;;;;5074219;28;20211;-60
2023/03/23 04:02:41;;;;;;;3.73;3.43;;;;;;;;;;5074013;28;20230;-60
2023/03/23 04:05:09;;;;;;;6.90;3.60;;;;;;;;;;5074011;28;20659;-60
2023/03/23 04:07:37;;;;;;;6.23;3.20;;;;;;;;;;5073776;28;20227;-63
2023/03/23 04:10:04;;;;;;;5.63;2.97;;;;;;;;;;5073683;28;20278;-60
2023/03/23 04:12:30;;;;;;;6.03;3.13;;;;;;;;;;5073763;28;20211;-61
2023/03/23 04:14:58;;;;;;;3.50;2.57;;;;;;;;;;5073204;28;20301;-60
2023/03/23 04:17:27;;;;;;;2.87;2.57;;;;;;;;;;5073834;28;20257;-60
2023/03/23 04:19:56;;;;;;;3.70;2.60;;;;;;;;;;5073640;28;20195;-60
2023/03/23 04:22:29;;;;;;;3.63;2.70;;;;;;;;;;5073610;28;20604;-60
2023/03/23 04:24:58;;;;;;;2.27;1.83;;;;;;;;;;5073460;28;20199;-60
2023/03/23 04:27:24;;;;;;;3.50;2.20;;;;;;;;;;5073471;28;20227;-61
2023/03/23 04:29:50;;;;;;;3.80;2.33;;;;;;;;;;5073324;28;20245;-59
2023/03/23 04:32:17;;;;;;;2.70;2.17;;;;;;;;;;5073342;28;20238;-59
2023/03/23 04:34:44;;;;;;;4.40;2.33;;;;;;;;;;5073252;28;20207;-60
2023/03/23 04:37:10;;;;;;;3.57;2.20;;;;;;;;;;5073232;28;20556;-60
2023/03/23 04:39:36;;;;;;;3.67;2.00;;;;;;;;;;5073205;28;20230;-59
2023/03/23 04:42:02;;;;;;;2.80;2.13;;;;;;;;;;5072899;28;20494;-59
2023/03/23 04:44:28;;;;;;;2.50;2.10;;;;;;;;;;5073049;28;20230;-59
2023/03/23 04:46:54;;;;;;;2.83;2.00;;;;;;;;;;5072944;28;20227;-60
2023/03/23 04:49:21;;;;;;;2.83;2.00;;;;;;;;;;5072891;28;20272;-60
2023/03/23 04:51:48;;;;;;;3.23;2.17;;;;;;;;;;5072886;28;20210;-59
2023/03/23 04:54:14;;;;;;;4.40;2.03;;;;;;;;;;5072799;28;20199;-60
2023/03/23 04:56:41;;;;;;;4.10;2.00;;;;;;;;;;5072799;28;20658;-60
2023/03/23 04:59:07;;;;;;;4.80;2.20;;;;;;;;;;5072740;28;20195;-60
2023/03/23 05:01:34;;;;;;;2.73;1.80;;;;;;;;;;5072860;28;20195;-60
2023/03/23 05:04:00;;;;;;;2.77;2.23;;;;;;;;;;5072386;28;20243;-59
2023/03/23 05:06:27;;;;;;;2.63;1.90;;;;;;;;;;5072505;28;20245;-59
2023/03/23 05:08:53;;;;;;;1.83;1.70;;;;;;;;;;5072636;28;20204;-60
2023/03/23 05:11:19;;;;;;;2.37;1.90;;;;;;;;;;5072377;28;20538;-59
2023/03/23 05:13:45;;;;;;;2.57;1.80;;;;;;;;;;5072567;28;20203;-59
2023/03/23 05:16:11;;;;;;;4.40;2.00;;;;;;;;;;5072382;28;20196;-59
2023/03/23 05:18:37;;;;;;;2.93;2.03;;;;;;;;;;5072717;28;20199;-59
2023/03/23 05:21:04;;;;;;;3.10;2.07;;;;;;;;;;5072223;28;20727;-59
2023/03/23 05:23:33;;;;;;;2.30;1.90;;;;;;;;;;5072349;28;20282;-59
2023/03/23 05:26:02;;;;;;;4.40;2.07;;;;;;;;;;5071304;28;20226;-60
2023/03/23 05:28:30;;;;;;;2.07;1.90;;;;;;;;;;5072140;28;20242;-59
2023/03/23 05:30:56;;;;;;;2.83;1.93;;;;;;;;;;5072061;28;20576;-59
2023/03/23 05:33:22;;;;;;;4.50;2.27;;;;;;;;;;5072267;28;20665;-59
2023/03/23 05:35:48;;;;;;;2.13;1.97;;;;;;;;;;5072052;28;20191;-60
2023/03/23 05:38:14;;;;;;;2.60;1.80;;;;;;;;;;5071963;28;20199;-60
2023/03/23 05:40:42;;;;;;;3.53;1.90;;;;;;;;;;5072003;28;20290;-60
2023/03/23 05:43:08;;;;;;;5.70;2.30;;;;;;;;;;5071903;28;20269;-59
2023/03/23 05:45:34;;;;;;;2.10;1.90;;;;;;;;;;5071855;28;20187;-60
2023/03/23 05:48:01;;;;;;;3.33;1.97;;;;;;;;;;5071805;28;20571;-60
2023/03/23 05:50:28;;;;;;;2.70;2.00;;;;;;;;;;5071868;28;20199;-59
2023/03/23 05:52:55;;;;;;;3.80;2.10;;;;;;;;;;5071891;28;20207;-60
2023/03/23 05:55:21;;;;;;;3.07;2.00;;;;;;;;;;5071777;28;20188;-59
2023/03/23 05:57:48;;;;;;;2.63;2.10;;;;;;;;;;5071759;28;20199;-60
2023/03/23 06:00:16;;;;;;;3.47;1.90;;;;;;;;;;5071622;28;20211;-60
2023/03/23 06:02:43;;;;;;;3.50;2.00;;;;;;;;;;5071758;28;20226;-60
2023/03/23 06:05:10;;;;;;;4.17;2.43;;;;;;;;;;5071552;28;20235;-59
2023/03/23 06:07:37;;;;;;;2.10;1.90;;;;;;;;;;5071716;28;20311;-60
2023/03/23 06:10:03;;;;;;;2.50;1.70;;;;;;;;;;5071701;28;20591;-60
2023/03/23 06:12:31;;;;;;;2.47;2.13;;;;;;;;;;5071510;28;20257;-60
2023/03/23 06:14:58;;;;;;;2.43;1.97;;;;;;;;;;5071472;28;20709;-60
2023/03/23 06:17:25;;;;;;;3.27;1.73;;;;;;;;;;5071525;28;20321;-60
2023/03/23 06:19:51;;;;;;;3.57;1.97;;;;;;;;;;5071374;28;20282;-60
2023/03/23 06:22:17;;;;;;;2.47;2.00;;;;;;;;;;5071051;28;20536;-60
2023/03/23 06:24:43;;;;;;;2.00;1.83;;;;;;;;;;5071528;28;20199;-60
2023/03/23 06:27:09;;;;;;;3.00;1.97;;;;;;;;;;5071221;28;20617;-60
2023/03/23 06:29:36;;;;;;;2.80;1.80;;;;;;;;;;5071332;28;20665;-60
2023/03/23 06:32:04;;;;;;;2.20;2.00;;;;;;;;;;5071250;28;20203;-60
2023/03/23 06:34:30;;;;;;;3.80;1.97;;;;;;;;;;5071409;28;20302;-60
2023/03/23 06:36:57;;;;;;;2.00;1.70;;;;;;;;;;5071451;28;20197;-60
2023/03/23 06:39:23;;;;;;;2.00;1.80;;;;;;;;;;5075597;28;20573;-60
2023/03/23 06:41:49;;;;;;;3.03;2.10;;;;;;;;;;5075334;28;20214;-60
2023/03/23 06:44:15;;;;;;;2.83;1.70;;;;;;;;;;5075453;28;20203;-60
2023/03/23 06:46:41;;;;;;;2.80;1.93;;;;;;;;;;5075396;28;20261;-59
2023/03/23 06:49:09;;;;;;;2.43;1.90;;;;;;;;;;5075321;28;20223;-59
2023/03/23 06:51:36;;;;;;;2.40;2.20;;;;;;;;;;5075114;28;20619;-60
2023/03/23 06:54:02;;;;;;;3.20;1.97;;;;;;;;;;5074972;28;20210;-60
2023/03/23 06:56:29;;;;;;;2.30;2.10;;;;;;;;;;5075182;28;20195;-60
2023/03/23 06:58:55;;;;;;;2.30;2.10;;;;;;;;;;5075090;28;20199;-60
2023/03/23 07:01:21;;;;;;;3.30;2.27;;;;;;;;;;5075113;28;20253;-59
2023/03/23 07:03:48;;;;;;;3.63;2.30;;;;;;;;;;5074838;28;20231;-59
2023/03/23 07:06:16;;;;;;;2.40;2.20;;;;;;;;;;5074741;28;20200;-59
2023/03/23 07:08:42;;;;;;;2.23;2.00;;;;;;;;;;5074786;28;20596;-59
2023/03/23 07:11:09;;;;;;;3.27;2.30;;;;;;;;;;5074770;28;20229;-59
2023/03/23 07:13:36;;;;;;;2.67;2.07;;;;;;;;;;5074814;28;20227;-59
2023/03/23 07:16:05;;;;;;;2.80;2.17;;;;;;;;;;5074566;28;20315;-61
2023/03/23 07:18:31;;;;;;;3.03;2.40;;;;;;;;;;5074700;28;20199;-61
2023/03/23 07:20:57;;;;;;;2.97;2.30;;;;;;;;;;5074565;28;20252;-59
2023/03/23 07:23:25;;;;;;;3.07;2.70;;;;;;;;;;5074696;28;20195;-60
2023/03/23 07:25:51;;;;;;;3.40;2.57;;;;;;;;;;5074480;28;20207;-59
2023/03/23 07:28:18;;;;;;;2.53;2.33;;;;;;;;;;5074297;28;20235;-59
2023/03/23 07:30:44;;;;;;;3.17;2.50;;;;;;;;;;5074436;28;20191;-58
2023/03/23 07:33:11;;;;;;;4.33;2.70;;;;;;;;;;5074258;28;20219;-59
2023/03/23 07:35:37;;;;;;;2.50;2.00;;;;;;;;;;5074696;28;20199;-59
2023/03/23 07:38:03;;;;;;;4.60;2.20;;;;;;;;;;5074238;28;20192;-59
2023/03/23 07:40:33;;;;;;;3.43;2.20;;;;;;;;;;5074285;28;20219;-58
2023/03/23 07:42:59;;;;;;;4.57;2.40;;;;;;;;;;5074037;28;20211;-58
2023/03/23 07:45:26;;;;;;;4.13;2.30;;;;;;;;;;5074199;28;20666;-57
2023/03/23 07:47:52;;;;;;;3.20;2.33;;;;;;;;;;5074152;28;20635;-57
2023/03/23 07:50:21;;;;;;;3.60;2.57;;;;;;;;;;5073144;28;20203;-57
2023/03/23 07:52:48;;;;;;;2.80;2.33;;;;;;;;;;5074095;28;20198;-58
2023/03/23 07:55:17;;;;;;;2.53;2.30;;;;;;;;;;5073909;28;20200;-59
2023/03/23 07:57:44;;;;;;;3.70;2.47;;;;;;;;;;5074043;28;20191;-57
2023/03/23 08:00:19;;;;;;;3.30;2.60;;;;;;;;;;5074083;28;20235;-57
2023/03/23 08:02:45;;;;;;;3.03;2.23;;;;;;;;;;5074189;28;20190;-58
2023/03/23 08:05:13;;;;;;;2.83;2.40;;;;;;;;;;5073932;28;20297;-57
2023/03/23 08:07:40;;;;;;;4.97;2.67;;;;;;;;;;5074145;28;20269;-58
2023/03/23 08:10:10;;;;;;;6.20;2.60;;;;;;;;;;5073746;28;20204;-58
2023/03/23 08:12:36;;;;;;;3.30;2.30;;;;;;;;;;5073881;28;20282;-57
2023/03/23 08:15:04;;;;;;;3.93;2.40;;;;;;;;;;5073685;28;20278;-58
2023/03/23 08:17:31;;;;;;;4.43;2.67;;;;;;;;;;5064138;28;20210;-61
2023/03/23 08:19:57;;;;;;;6.53;2.83;;;;;;;;;;5073255;28;20249;-60
2023/03/23 08:22:24;;;;;;;4.27;2.60;;;;;;;;;;5073384;28;20195;-60
2023/03/23 08:24:50;;;;;;;3.93;2.57;;;;;;;;;;5073218;28;20261;-58
2023/03/23 08:27:16;;;;;;;3.33;2.60;;;;;;;;;;5073187;28;20597;-58
2023/03/23 08:29:44;;;;;;;3.17;2.23;;;;;;;;;;5073216;28;20199;-58
2023/03/23 08:32:12;;;;;;;4.50;2.70;;;;;;;;;;5073137;28;20571;-57
2023/03/23 08:34:38;;;;;;;5.20;2.63;;;;;;;;;;5072823;28;20243;-59
2023/03/23 08:37:04;;;;;;;4.67;2.87;;;;;;;;;;5072953;28;20583;-59
2023/03/23 08:39:33;;;;;;;5.43;2.63;;;;;;;;;;5072979;28;20207;-58
2023/03/23 08:41:59;;;;;;;5.97;2.37;;;;;;;;;;5072656;28;20693;-56
2023/03/23 08:44:25;;;;;;;4.43;2.47;;;;;;;;;;5072954;28;20206;-58
2023/03/23 08:46:56;;;;;;;6.67;2.57;;;;;;;;;;5066166;28;20234;-58
2023/03/23 08:49:24;;;;;;;5.70;2.60;;;;;;;;;;5072773;28;20615;-58
2023/03/23 08:51:50;;;;;;;4.63;2.40;;;;;;;;;;5072701;28;20222;-57
2023/03/23 08:54:17;;;;;;;4.87;2.53;;;;;;;;;;5072329;28;20549;-58
2023/03/23 08:56:43;;;;;;;4.33;2.20;;;;;;;;;;5072304;28;20203;-57
2023/03/23 08:59:09;;;;;;;6.10;3.10;;;;;;;;;;5072099;28;20195;-57
2023/03/23 09:01:35;;;;;;;2.70;2.47;;;;;;;;;;5072680;28;20241;-57
2023/03/23 09:04:02;;;;;;;3.73;2.27;;;;;;;;;;5072095;28;20236;-57
2023/03/23 09:06:29;;;;;;;4.13;2.40;;;;;;;;;;5072244;28;20195;-57
2023/03/23 09:08:55;;;;;;;5.60;2.40;;;;;;;;;;5072389;28;20629;-58
2023/03/23 09:11:22;;;;;;;3.97;2.63;;;;;;;;;;5072039;28;20211;-58
2023/03/23 09:13:48;;;;;;;4.70;2.60;;;;;;;;;;5072382;28;20250;-59
2023/03/23 09:16:14;;;;;;;3.23;2.70;;;;;;;;;;5072056;28;20227;-59
2023/03/23 09:18:40;;;;;;;4.80;2.70;;;;;;;;;;5072247;28;20223;-59
2023/03/23 09:21:06;;;;;;;5.03;3.20;;;;;;;;;;5072028;28;20192;-58
2023/03/23 09:23:33;;;;;;;3.87;3.47;;;;;;;;;;5071805;28;20198;-57
2023/03/23 09:26:03;;;;;;;4.77;3.00;;;;;;;;;;5072126;28;20215;-60
2023/03/23 09:28:31;;;;;;;5.80;3.17;;;;;;;;;;5071791;28;20712;-57
2023/03/23 09:30:57;;;;;;;5.37;3.17;;;;;;;;;;5071973;28;20203;-57
2023/03/23 09:33:23;;;;;;;4.40;3.10;;;;;;;;;;5071838;28;20219;-58
2023/03/23 09:35:49;;;;;;;3.73;3.30;;;;;;;;;;5071558;28;20242;-59
2023/03/23 09:38:15;;;;;;;5.03;2.70;;;;;;;;;;5071699;28;20188;-59
2023/03/23 09:40:48;;;;;;;4.90;2.53;;;;;;;;;;5071648;28;20191;-60
2023/03/23 09:43:29;;;;;;;3.80;2.77;;;;;;;;;;5071534;28;20731;-60
2023/03/23 09:46:00;;;;;;;3.17;2.53;;;;;;;;;;5071467;28;20669;-58
2023/03/23 09:48:33;;;;;;;4.77;2.70;;;;;;;;;;5070319;28;20662;-60
2023/03/23 09:51:01;;;;;;;4.30;2.50;;;;;;;;;;5071656;28;20270;-58
2023/03/23 09:53:34;;;;;;;6.03;2.63;;;;;;;;;;5071592;28;20195;-59
2023/03/23 09:56:02;;;;;;;4.10;2.70;;;;;;;;;;5071406;28;20228;-61
2023/03/23 09:58:32;;;;;;;5.60;2.67;;;;;;;;;;5071050;28;20276;-57
2023/03/23 10:00:59;;;;;;;4.67;2.00;;;;;;;;;;5071519;28;20188;-59
2023/03/23 10:03:27;;;;;;;3.07;1.80;;;;;;;;;;5071355;28;20654;-59
2023/03/23 10:05:54;;;;;;;2.40;1.53;;;;;;;;;;5071552;28;20310;-58
2023/03/23 10:08:21;;;;;;;3.77;1.93;;;;;;;;;;5071223;28;20704;-58
2023/03/23 10:10:50;;;;;;;5.87;1.80;;;;;;;;;;5071019;28;20191;-58
2023/03/23 10:13:23;;;;;;;3.70;1.77;;;;;;;;;;5070765;28;20221;-58
2023/03/23 10:15:50;;;;;;;2.60;1.57;;;;;;;;;;5071237;28;20614;-56
2023/03/23 10:18:18;;;;;;;1.80;1.47;;;;;;;;;;5071077;28;20196;-58
2023/03/23 10:20:47;;;;;;;4.37;1.57;;;;;;;;;;5071231;28;20219;-56
2023/03/23 10:23:22;;;;;;;4.53;1.53;;;;;;;;;;5070893;28;20245;-58
2023/03/23 10:25:49;;;;;;;2.37;1.30;;;;;;;;;;5071332;28;20194;-58
2023/03/23 10:28:18;;;;;;;1.63;1.10;;;;;;;;;;5070977;28;20701;-58
2023/03/23 10:30:47;;;;;;;3.07;1.47;;;;;;;;;;5070807;28;20199;-58
2023/03/23 10:33:16;;;;;;;2.43;1.20;;;;;;;;;;5070780;28;20205;-61
2023/03/23 10:35:44;;;;;;;3.90;1.53;;;;;;;;;;5070866;28;20199;-58
2023/03/23 10:38:12;;;;;;;3.60;1.60;;;;;;;;;;5069158;28;20200;-60
2023/03/23 10:40:47;;;;;;;2.20;1.60;;;;;;;;;;5069450;28;20207;-58
2023/03/23 10:43:13;;;;;;;3.97;1.70;;;;;;;;;;5070921;28;20222;-61
2023/03/23 10:45:41;;;;;;;3.70;1.60;;;;;;;;;;5071130;28;20653;-63
2023/03/23 10:48:15;;;;;;;2.73;1.80;;;;;;;;;;5070798;28;20234;-62
2023/03/23 10:50:43;;;;;;;3.30;1.93;;;;;;;;;;5070909;28;20199;-65
2023/03/23 10:53:14;;;;;;;2.83;1.60;;;;;;;;;;5071006;28;20180;-64
2023/03/23 10:55:43;;;;;;;3.10;1.60;;;;;;;;;;5070898;28;20715;-61
2023/03/23 10:58:10;;;;;;;3.53;1.77;;;;;;;;;;5070968;28;20196;-59
2023/03/23 11:00:41;;;;;;;3.23;1.60;;;;;;;;;;5067685;28;20221;-59
2023/03/23 11:03:28;;;;;;;3.67;1.70;;;;;;;;;;5070934;28;20207;-58
2023/03/23 11:05:57;;;;;;;2.80;1.57;;;;;;;;;;5071151;28;20203;-59
2023/03/23 11:08:25;;;;;;;2.67;1.90;;;;;;;;;;5070954;28;20230;-58
2023/03/23 11:10:52;;;;;;;2.13;1.60;;;;;;;;;;5071119;28;20195;-58
2023/03/23 11:13:19;;;;;;;3.00;1.97;;;;;;;;;;5070837;28;20601;-58
2023/03/23 11:15:46;;;;;;;3.73;1.87;;;;;;;;;;5071058;28;20395;-58
2023/03/23 11:18:18;;;;;;;4.60;1.90;;;;;;;;;;5070835;28;20245;-57
2023/03/23 11:20:48;;;;;;;3.83;1.87;;;;;;;;;;5071065;28;20239;-58
2023/03/23 11:23:20;;;;;;;3.53;2.20;;;;;;;;;;5070819;28;20223;-58
2023/03/23 11:26:00;;;;;;;4.30;2.07;;;;;;;;;;5073605;28;20642;-58
2023/03/23 11:28:28;;;;;;;3.03;1.70;;;;;;;;;;5074393;28;20688;-57
2023/03/23 11:30:55;;;;;;;3.23;2.10;;;;;;;;;;5074689;28;20191;-56
2023/03/23 11:33:24;;;;;;;3.27;1.63;;;;;;;;;;5074188;28;20203;-57
2023/03/23 11:35:52;;;;;;;3.70;1.97;;;;;;;;;;5074473;28;20617;-57
2023/03/23 11:38:19;;;;;;;1.77;1.33;;;;;;;;;;5074204;28;20610;-57
2023/03/23 11:40:48;;;;;;;4.07;1.50;;;;;;;;;;5074326;28;20207;-57
2023/03/23 11:43:15;;;;;;;2.43;1.30;;;;;;;;;;5074098;28;20215;-57
2023/03/23 11:45:48;;;;;;;2.70;1.40;;;;;;;;;;5074341;28;20249;-57
2023/03/23 11:48:18;;;;;;;2.47;1.80;;;;;;;;;;5074193;28;20706;-57
2023/03/23 11:50:48;;;;;;;1.50;1.30;;;;;;;;;;5074005;28;20223;-57
2023/03/23 11:53:18;;;;;;;1.80;1.60;;;;;;;;;;5073925;28;20589;-57
2023/03/23 11:55:55;;;;;;;1.90;1.40;;;;;;;;;;5074000;28;20550;-58
2023/03/23 11:58:21;;;;;;;1.47;1.30;;;;;;;;;;5073990;28;20278;-59
2023/03/23 12:00:51;;;;;;;1.47;1.23;;;;;;;;;;5074021;28;20200;-59
2023/03/23 12:03:33;;;;;;;2.77;1.40;;;;;;;;;;5073623;28;20219;-58
2023/03/23 12:06:03;;;;;;;2.27;1.40;;;;;;;;;;5073841;28;20203;-58
2023/03/23 12:08:50;;;;;;;1.40;1.30;;;;;;;;;;5073602;28;20224;-58
2023/03/23 12:11:19;;;;;;;2.73;1.57;;;;;;;;;;5073564;28;20203;-59
2023/03/23 12:13:55;;;;;;;1.30;1.20;;;;;;;;;;5073754;28;20199;-58
2023/03/23 12:16:24;;;;;;;2.90;1.50;;;;;;;;;;5073652;28;20203;-57
2023/03/23 12:18:55;;;;;;;2.30;1.80;;;;;;;;;;5073919;28;20213;-57
2023/03/23 12:21:27;;;;;;;2.33;1.60;;;;;;;;;;5073631;28;20248;-57
2023/03/23 12:23:58;;;;;;;2.20;1.50;;;;;;;;;;5073668;28;20203;-57
2023/03/23 12:26:26;;;;;;;1.70;1.50;;;;;;;;;;5073536;28;20692;-58
2023/03/23 12:29:01;;;;;;;2.43;1.63;;;;;;;;;;5073322;28;20232;-59
2023/03/23 12:31:32;;;;;;;1.87;1.37;;;;;;;;;;5073301;28;20190;-59
2023/03/23 12:34:02;;;;;;;2.70;1.70;;;;;;;;;;5073435;28;20195;-59
2023/03/23 12:36:35;;;;;;;1.90;1.60;;;;;;;;;;5072800;28;20199;-59
2023/03/23 12:39:09;;;;;;;2.40;1.63;;;;;;;;;;5064252;28;20669;-59
2023/03/23 12:41:38;;;;;;;2.90;1.63;;;;;;;;;;5073056;28;20199;-57
2023/03/23 12:44:06;;;;;;;2.23;1.97;;;;;;;;;;5072952;28;20207;-59
2023/03/23 12:46:47;;;;;;;1.83;1.60;;;;;;;;;;5072867;28;20261;-58
2023/03/23 12:49:17;;;;;;;2.90;1.70;;;;;;;;;;5072738;28;20273;-57
2023/03/23 12:51:46;;;;;;;3.20;1.80;;;;;;;;;;5072729;28;20294;-58
2023/03/23 12:54:16;;;;;;;4.03;2.00;;;;;;;;;;5072585;28;20199;-58
2023/03/23 12:56:45;;;;;;;3.97;1.87;;;;;;;;;;5053162;28;20227;-60
2023/03/23 12:59:14;;;;;;;3.53;2.13;;;;;;;;;;5052748;28;20206;-58
2023/03/23 13:01:43;;;;;;;3.37;1.80;;;;;;;;;;5052950;28;20200;-59
2023/03/23 13:04:11;;;;;;;3.13;1.43;;;;;;;;;;5048552;28;20267;-58
2023/03/23 13:06:38;;;;;;;2.77;1.73;;;;;;;;;;5052999;28;20192;-58
2023/03/23 13:09:08;;;;;;;1.67;1.30;;;;;;;;;;5052125;28;20226;-59
2023/03/23 13:11:35;;;;;;;1.50;1.10;;;;;;;;;;5052966;28;20215;-59
2023/03/23 13:14:06;;;;;;;3.97;1.40;;;;;;;;;;5052754;28;20207;-59
2023/03/23 13:16:37;;;;;;;1.93;1.27;;;;;;;;;;5052770;28;20239;-59
2023/03/23 13:19:11;;;;;;;2.47;1.20;;;;;;;;;;5052643;28;20192;-59
2023/03/23 13:21:43;;;;;;;2.93;1.40;;;;;;;;;;5052880;28;20223;-59
2023/03/23 13:24:13;;;;;;;2.57;1.20;;;;;;;;;;5052595;28;20196;-59
2023/03/23 13:26:40;;;;;;;1.33;1.17;;;;;;;;;;5052804;28;20303;-59
2023/03/23 13:29:08;;;;;;;1.43;1.10;;;;;;;;;;5051224;28;20311;-60
2023/03/23 13:31:36;;;;;;;2.30;1.03;;;;;;;;;;5052212;28;20215;-59
2023/03/23 13:34:03;;;;;;;2.07;1.30;;;;;;;;;;5052163;28;20192;-60
2023/03/23 13:36:31;;;;;;;2.53;1.40;;;;;;;;;;5052318;28;20207;-61
2023/03/23 13:38:59;;;;;;;2.53;1.03;;;;;;;;;;5051984;28;20262;-60
2023/03/23 13:41:27;;;;;;;1.83;1.27;;;;;;;;;;5050126;28;20674;-60
2023/03/23 13:43:53;;;;;;;2.43;1.20;;;;;;;;;;5051864;28;20323;-60
2023/03/23 13:46:27;;;;;;;2.03;1.20;;;;;;;;;;5051517;28;20204;-61
2023/03/23 13:49:04;;;;;;;2.13;1.37;;;;;;;;;;5051375;28;20228;-60
2023/03/23 13:51:34;;;;;;;2.47;1.50;;;;;;;;;;5051542;28;20597;-60
2023/03/23 13:54:21;;;;;;;1.40;1.03;;;;;;;;;;5051650;28;20192;-61
2023/03/23 13:56:54;;;;;;;2.53;1.33;;;;;;;;;;5046632;28;20598;-61
2023/03/23 13:59:29;;;;;;;3.00;1.30;;;;;;;;;;5051584;28;20198;-61
2023/03/23 14:01:56;;;;;;;1.57;1.20;;;;;;;;;;5051720;28;20196;-60
2023/03/23 14:04:23;;;;;;;3.07;1.20;;;;;;;;;;5051313;28;20294;-59
2023/03/23 14:06:51;;;;;;;2.13;1.10;;;;;;;;;;5051409;28;20218;-59
2023/03/23 14:09:24;;;;;;;1.80;1.00;;;;;;;;;;5051188;28;20219;-61
2023/03/23 14:11:55;;;;;;;2.33;1.07;;;;;;;;;;5051433;28;20196;-59
2023/03/23 14:14:25;;;;;;;4.03;1.50;;;;;;;;;;5051464;28;20207;-59
2023/03/23 14:16:52;;;;;;;1.93;1.77;;;;;;;;;;5051682;28;20282;-59
2023/03/23 14:19:19;;;;;;;2.17;1.70;;;;;;;;;;5051111;28;20609;-59
2023/03/23 14:21:53;;;;;;;1.50;1.20;;;;;;;;;;5051363;28;20207;-60
2023/03/23 14:24:22;;;;;;;1.83;1.23;;;;;;;;;;5051143;28;20199;-60
2023/03/23 14:26:52;;;;;;;3.53;1.80;;;;;;;;;;5051301;28;20210;-60
2023/03/23 14:29:20;;;;;;;1.70;1.40;;;;;;;;;;5051203;28;20228;-59
2023/03/23 14:31:49;;;;;;;4.27;1.43;;;;;;;;;;5051219;28;20212;-60
2023/03/23 14:34:17;;;;;;;2.27;1.13;;;;;;;;;;5051010;28;20647;-60
2023/03/23 14:36:43;;;;;;;2.63;1.43;;;;;;;;;;5051237;28;20287;-60
2023/03/23 14:39:15;;;;;;;2.33;1.40;;;;;;;;;;5051157;28;20230;-63
2023/03/23 14:41:43;;;;;;;2.27;1.30;;;;;;;;;;5051244;28;20210;-59
2023/03/23 14:44:12;;;;;;;3.03;1.53;;;;;;;;;;5051221;28;20207;-59
2023/03/23 14:46:41;;;;;;;1.93;1.10;;;;;;;;;;5051270;28;20242;-60
2023/03/23 14:49:07;;;;;;;3.90;1.40;;;;;;;;;;5051127;28;20224;-60